Time;durP1;ratioP1;P1;durP2;ratioP2;P2;SDS_P1;SDS_P2;PMS_P1;PMS_P2;Temp;Humidity;BMP_temperature;BMP_pressure;BME280_temperature;BME280_humidity;BME280_pressure;Samples;Min_cycle;Max_cycle;Signal;HPM_P1;HPM_P2
2023/07/20 00:01:25;;;;;;;2.85;1.40;;;19.70;99.50;;;20.09;93.99;100789.31;5224685;28;20095;-50
2023/07/20 00:03:58;;;;;;;3.15;1.50;;;19.60;99.60;;;20.08;94.51;100798.09;5224556;28;20060;-51
2023/07/20 00:06:30;;;;;;;1.50;1.10;;;19.60;99.80;;;20.09;94.80;100799.88;5224376;28;20143;-51
2023/07/20 00:09:03;;;;;;;1.95;1.40;;;19.60;99.90;;;20.10;95.29;100801.63;5224483;28;20045;-50
2023/07/20 00:11:38;;;;;;;1.35;1.25;;;19.70;99.90;;;20.13;95.35;100793.69;5224363;28;20045;-50
2023/07/20 00:14:10;;;;;;;2.50;1.40;;;19.70;99.90;;;20.14;95.41;100790.13;5224427;28;20506;-51
2023/07/20 00:16:43;;;;;;;1.58;1.35;;;19.70;99.90;;;20.15;95.43;100788.38;5224564;28;20663;-50
2023/07/20 00:19:16;;;;;;;2.65;1.58;;;19.70;99.90;;;20.17;95.81;100791.91;5224368;28;20049;-49
2023/07/20 00:21:49;;;;;;;1.98;1.65;;;19.70;99.90;;;20.15;95.75;100794.56;5224598;28;20049;-50
2023/07/20 00:24:21;;;;;;;2.28;1.27;;;19.70;99.90;;;20.16;95.55;100796.31;5224310;28;20136;-50
2023/07/20 00:26:55;;;;;;;2.33;1.30;;;19.70;99.90;;;20.17;95.36;100802.50;5224329;28;20399;-50
2023/07/20 00:29:27;;;;;;;2.97;1.55;;;19.70;99.90;;;20.17;95.22;100797.19;5225348;28;20120;-50
2023/07/20 00:32:00;;;;;;;1.77;1.40;;;19.70;99.90;;;20.15;95.30;100799.88;5224004;28;20045;-50
2023/07/20 00:34:32;;;;;;;2.38;1.25;;;19.70;99.90;;;20.17;95.13;100791.91;5224059;28;20076;-50
2023/07/20 00:37:05;;;;;;;1.83;1.30;;;19.70;99.90;;;20.15;95.16;100789.28;5223791;28;20048;-49
2023/07/20 00:39:38;;;;;;;2.53;1.20;;;19.70;99.90;;;20.16;95.43;100791.03;5223995;28;20071;-51
2023/07/20 00:42:12;;;;;;;4.45;1.27;;;19.70;99.90;;;20.15;95.75;100793.66;5223660;28;20049;-49
2023/07/20 00:44:47;;;;;;;3.42;1.52;;;19.70;99.90;;;20.14;96.13;100790.13;5224063;28;20052;-49
2023/07/20 00:47:20;;;;;;;1.92;1.42;;;19.70;99.90;;;20.15;96.38;100794.56;5223788;28;20033;-50
2023/07/20 00:49:53;;;;;;;2.53;1.60;;;19.70;99.90;;;20.15;96.18;100794.56;5223720;28;20053;-50
2023/07/20 00:52:28;;;;;;;2.88;1.52;;;19.70;99.90;;;20.18;96.08;100798.97;5223710;28;20049;-50
2023/07/20 00:55:05;;;;;;;3.22;1.80;;;19.80;99.90;;;20.19;95.94;100796.28;5223583;28;20063;-49
2023/07/20 00:57:38;;;;;;;2.20;1.58;;;19.70;99.90;;;20.20;95.72;100803.34;5223539;28;20051;-49
2023/07/20 01:00:14;;;;;;;3.03;1.60;;;19.80;99.90;;;20.20;95.84;100797.19;5223398;28;20080;-49
2023/07/20 01:02:46;;;;;;;3.35;1.67;;;19.80;99.90;;;20.18;96.02;100794.53;5223431;28;20509;-51
2023/07/20 01:05:19;;;;;;;1.92;1.48;;;19.70;99.90;;;20.17;96.25;100787.50;5223474;28;20076;-50
2023/07/20 01:08:02;;;;;;;2.05;1.48;;;19.80;99.90;;;20.15;96.60;100783.97;5223524;28;20047;-50
2023/07/20 01:10:41;;;;;;;2.20;1.42;;;19.70;99.90;;;20.14;97.01;100792.78;5223495;28;20049;-50
2023/07/20 01:13:19;;;;;;;1.92;1.45;;;19.70;99.90;;;20.11;97.45;100792.81;5223232;28;20171;-50
2023/07/20 01:15:58;;;;;;;2.45;1.33;;;19.70;99.90;;;20.09;97.75;100789.31;5223230;28;20564;-50
2023/07/20 01:18:31;;;;;;;2.03;1.38;;;19.70;99.90;;;20.06;98.21;100784.88;5223213;28;20049;-50
2023/07/20 01:21:10;;;;;;;3.17;1.63;;;19.60;99.90;;;20.05;98.71;100790.19;5223263;28;20114;-50
2023/07/20 01:24:37;;;;;;;1.90;1.10;;;19.60;99.90;;;20.01;99.11;100791.06;5223049;28;20079;-49
2023/07/20 01:27:42;;;;;;;2.05;1.40;;;19.60;99.90;;;19.99;99.98;100792.84;5144042;28;20046;-51
2023/07/20 01:30:39;;;;;;;2.70;1.17;;;19.60;99.90;;;19.96;100.00;100785.81;5222860;28;20055;-51
2023/07/20 01:33:14;;;;;;;4.88;1.60;;;19.60;99.90;;;19.97;100.00;100789.34;5222760;28;20095;-50
2023/07/20 01:35:54;;;;;;;3.58;1.45;;;19.60;99.90;;;19.95;100.00;100792.00;5222668;28;20045;-50
2023/07/20 01:38:27;;;;;;;1.95;1.25;;;19.50;99.90;;;19.91;100.00;100784.94;5222742;28;20041;-50
2023/07/20 01:41:00;;;;;;;3.25;1.48;;;19.50;99.90;;;19.90;100.00;100783.19;5224193;28;20049;-51
2023/07/20 01:43:32;;;;;;;2.83;1.40;;;19.50;99.90;;;19.88;100.00;100789.34;5222767;28;20103;-51
2023/07/20 01:46:04;;;;;;;2.50;1.40;;;19.50;99.90;;;19.84;100.00;100780.56;5222690;28;20049;-50
2023/07/20 01:48:38;;;;;;;3.33;1.27;;;19.40;99.90;;;19.82;100.00;100789.38;5222540;28;20047;-49
2023/07/20 01:51:12;;;;;;;2.08;1.23;;;19.40;99.90;;;19.79;100.00;100783.22;5222594;28;20080;-49
2023/07/20 01:53:44;;;;;;;2.53;1.10;;;19.40;99.90;;;19.77;100.00;100782.34;5221778;28;20080;-50
2023/07/20 01:56:16;;;;;;;3.20;1.30;;;19.40;99.90;;;19.75;100.00;100786.75;5222430;28;20045;-49
2023/07/20 01:58:49;;;;;;;1.95;1.33;;;19.40;99.90;;;19.72;100.00;100772.69;5222394;28;20041;-49
2023/07/20 02:01:21;;;;;;;2.33;1.40;;;19.30;99.90;;;19.70;100.00;100779.75;5222284;28;20060;-49
2023/07/20 02:03:57;;;;;;;2.30;1.05;;;19.30;99.90;;;19.67;100.00;100783.25;5222154;28;20040;-50
2023/07/20 02:06:30;;;;;;;3.28;1.50;;;19.30;99.90;;;19.64;100.00;100777.13;5222129;28;20049;-50
2023/07/20 02:09:02;;;;;;;3.08;1.30;;;19.20;99.90;;;19.60;100.00;100784.16;5222311;28;20048;-51
2023/07/20 02:11:37;;;;;;;1.55;1.20;;;19.20;99.90;;;19.57;100.00;100783.25;5222686;28;20576;-49
2023/07/20 02:14:09;;;;;;;2.53;1.50;;;19.20;99.90;;;19.52;100.00;100780.63;5222177;28;20449;-50
2023/07/20 02:16:42;;;;;;;3.13;1.38;;;19.10;99.90;;;19.47;100.00;100780.63;5222086;28;20095;-49
2023/07/20 02:19:19;;;;;;;2.72;1.30;;;19.10;99.90;;;19.44;100.00;100782.41;5222279;28;20061;-50
2023/07/20 02:21:51;;;;;;;2.95;1.45;;;19.10;99.90;;;19.39;100.00;100785.06;5204580;28;20060;-51
2023/07/20 02:24:24;;;;;;;1.73;1.20;;;19.00;99.90;;;19.35;100.00;100783.28;5221173;28;20049;-51
2023/07/20 02:27:00;;;;;;;3.17;1.50;;;19.00;99.90;;;19.32;100.00;100779.78;5209260;28;20050;-50
2023/07/20 02:29:33;;;;;;;2.33;1.30;;;18.90;99.90;;;19.29;100.00;100780.63;5225036;28;20072;-51
2023/07/20 02:32:07;;;;;;;2.50;1.73;;;18.90;99.90;;;19.27;100.00;100771.84;5204740;28;20053;-50
2023/07/20 02:34:41;;;;;;;2.63;1.30;;;18.90;99.90;;;19.27;100.00;100773.59;5204519;28;20049;-50
2023/07/20 02:37:13;;;;;;;2.72;1.52;;;18.90;99.90;;;19.21;100.00;100769.22;5220636;28;20514;-51
2023/07/20 02:39:46;;;;;;;2.80;1.63;;;18.80;99.90;;;19.18;100.00;100771.88;5204718;28;20422;-50
2023/07/20 02:42:19;;;;;;;1.27;1.00;;;18.80;99.90;;;19.13;100.00;100765.69;5212367;28;20045;-51
2023/07/20 02:44:52;;;;;;;3.28;1.25;;;18.70;99.90;;;19.12;100.00;100778.03;5218579;28;20041;-50
2023/07/20 02:47:27;;;;;;;1.88;1.50;;;18.70;99.90;;;19.07;100.00;100770.97;5225272;28;20190;-51
2023/07/20 02:50:01;;;;;;;2.72;1.40;;;18.70;99.90;;;19.05;100.00;100783.31;5228194;28;20052;-51
2023/07/20 02:52:34;;;;;;;2.10;1.15;;;18.70;99.90;;;19.02;100.00;100778.91;5212524;28;20049;-51
2023/07/20 02:55:07;;;;;;;2.17;1.30;;;18.60;99.90;;;19.01;100.00;100786.84;5200593;28;20049;-50
2023/07/20 02:57:39;;;;;;;2.13;1.33;;;18.60;99.90;;;18.98;100.00;100783.31;5202138;28;20037;-50
2023/07/20 03:00:16;;;;;;;2.50;1.27;;;18.60;99.90;;;18.95;100.00;100783.31;5212283;28;20057;-51
2023/07/20 03:02:48;;;;;;;2.15;1.33;;;18.60;99.90;;;18.93;100.00;100790.34;5210411;28;20044;-51
2023/07/20 03:05:25;;;;;;;2.78;1.40;;;18.50;99.90;;;18.91;100.00;100783.31;5224486;28;20045;-50
2023/07/20 03:07:58;;;;;;;2.38;1.30;;;18.60;99.90;;;18.83;100.00;100782.41;5213313;28;20034;-51
2023/07/20 03:10:31;;;;;;;3.05;1.38;;;18.50;99.90;;;18.80;100.00;100793.00;5236685;28;20053;-51
2023/07/20 03:13:06;;;;;;;2.80;1.50;;;18.40;99.90;;;18.77;100.00;100783.28;5212460;28;20054;-50
2023/07/20 03:15:39;;;;;;;4.38;1.55;;;18.40;99.90;;;18.73;100.00;100785.94;5236921;28;20041;-51
2023/07/20 03:18:12;;;;;;;3.38;1.95;;;18.40;99.90;;;18.67;100.00;100781.53;5233919;28;20048;-50
2023/07/20 03:20:46;;;;;;;3.30;1.60;;;18.30;99.90;;;18.66;100.00;100783.28;5224120;28;20140;-50
2023/07/20 03:23:18;;;;;;;3.70;1.70;;;18.30;99.90;;;18.67;100.00;100787.69;5216484;28;20060;-51
2023/07/20 03:25:53;;;;;;;3.67;1.88;;;18.30;99.90;;;18.68;100.00;100793.84;5214425;28;20049;-50
2023/07/20 03:28:26;;;;;;;3.25;1.60;;;18.30;99.90;;;18.67;100.00;100798.25;5227272;28;20060;-50
2023/07/20 03:30:59;;;;;;;2.85;1.45;;;18.30;99.90;;;18.68;100.00;100797.38;5215674;28;20053;-50
2023/07/20 03:33:33;;;;;;;1.65;1.50;;;18.30;99.90;;;18.69;100.00;100799.13;5216984;28;20057;-51
2023/07/20 03:36:07;;;;;;;3.13;1.55;;;18.30;99.90;;;18.71;100.00;100801.75;5224387;28;20528;-50
2023/07/20 03:38:40;;;;;;;2.53;1.42;;;18.30;99.90;;;18.73;100.00;100801.78;5223768;28;20415;-50
2023/07/20 03:41:12;;;;;;;2.15;1.35;;;18.30;99.90;;;18.75;100.00;100805.28;5233395;28;20090;-50
2023/07/20 03:43:45;;;;;;;2.13;1.38;;;18.40;99.90;;;18.75;100.00;100811.47;5214657;28;20391;-50
2023/07/20 03:46:17;;;;;;;2.95;1.27;;;18.40;99.90;;;18.76;100.00;100809.69;5218466;28;20079;-50
2023/07/20 03:48:50;;;;;;;2.80;1.45;;;18.40;99.90;;;18.73;100.00;100809.69;5222014;28;20045;-51
2023/07/20 03:51:24;;;;;;;2.10;1.40;;;18.40;99.90;;;18.70;100.00;100808.78;5226414;28;20139;-50
2023/07/20 03:53:56;;;;;;;3.75;1.80;;;18.30;99.90;;;18.68;100.00;100807.94;5215127;28;20549;-51
2023/07/20 03:56:28;;;;;;;2.20;1.40;;;18.30;99.90;;;18.68;100.00;100802.66;5215482;28;20131;-51
2023/07/20 03:59:01;;;;;;;2.35;1.30;;;18.30;99.90;;;18.72;100.00;100803.53;5212482;28;20107;-51
2023/07/20 04:01:36;;;;;;;2.38;1.40;;;18.30;99.90;;;18.77;100.00;100808.81;5235336;28;20084;-51
2023/07/20 04:04:09;;;;;;;2.60;1.40;;;18.40;99.90;;;18.79;100.00;100812.34;5223489;28;20576;-51
2023/07/20 04:06:44;;;;;;;3.00;1.60;;;18.40;99.90;;;18.83;100.00;100816.75;5215025;28;20445;-52
2023/07/20 04:09:19;;;;;;;;;;;18.40;99.90;;;18.84;100.00;100813.22;5233241;28;20049;-51
2023/07/20 04:11:51;;;;;;;2.00;1.10;;;18.40;99.90;;;18.85;100.00;100809.72;5221431;28;19920;-51
2023/07/20 04:14:24;;;;;;;2.42;1.00;;;18.50;99.90;;;18.87;100.00;100815.88;5218438;28;20384;-51
2023/07/20 04:16:56;;;;;;;2.30;1.33;;;18.50;99.90;;;18.90;100.00;100818.50;5206296;28;20052;-51
2023/07/20 04:19:28;;;;;;;1.83;1.40;;;18.50;99.90;;;18.90;100.00;100821.16;5223361;28;20045;-51
2023/07/20 04:22:02;;;;;;;3.60;1.52;;;18.50;99.90;;;18.90;100.00;100815.88;5212085;28;20063;-51
2023/07/20 04:24:36;;;;;;;3.00;1.23;;;18.50;99.90;;;18.88;100.00;100817.63;5227854;28;20045;-50
2023/07/20 04:27:08;;;;;;;3.42;1.60;;;18.50;99.90;;;18.87;100.00;100821.16;5231176;28;20074;-51
2023/07/20 04:29:41;;;;;;;2.30;1.30;;;18.50;99.90;;;18.90;100.00;100823.78;5222878;28;20029;-51
2023/07/20 04:32:13;;;;;;;2.78;1.27;;;18.50;99.90;;;18.92;100.00;100828.22;5215254;28;20045;-51
2023/07/20 04:34:45;;;;;;;2.17;1.20;;;18.50;99.90;;;18.95;100.00;100827.31;5214825;28;20037;-51
2023/07/20 04:37:19;;;;;;;3.72;1.70;;;18.50;99.90;;;18.96;100.00;100826.44;5214873;28;20128;-51
2023/07/20 04:39:53;;;;;;;2.85;1.50;;;18.60;99.90;;;18.98;100.00;100836.16;5221484;28;20049;-51
2023/07/20 04:42:26;;;;;;;2.63;1.42;;;18.60;99.90;;;18.99;100.00;100831.75;5232669;28;20045;-51
2023/07/20 04:44:58;;;;;;;2.60;1.30;;;18.60;99.90;;;19.00;100.00;100838.78;5214579;28;20552;-50
2023/07/20 04:47:31;;;;;;;3.38;1.50;;;18.60;99.90;;;18.99;100.00;100834.38;5222892;28;20049;-50
2023/07/20 04:50:03;;;;;;;2.08;1.40;;;18.60;99.90;;;19.01;100.00;100832.63;5222553;28;20052;-51
2023/07/20 04:52:38;;;;;;;3.05;1.33;;;18.60;99.90;;;19.02;100.00;100837.00;5214179;28;20045;-51
2023/07/20 04:55:10;;;;;;;2.25;1.40;;;18.60;99.90;;;19.02;100.00;100837.00;5214536;28;20037;-51
2023/07/20 04:57:44;;;;;;;3.70;1.60;;;18.60;99.90;;;18.97;100.00;100842.31;5206299;28;20076;-51
2023/07/20 05:00:17;;;;;;;3.58;1.65;;;18.60;99.90;;;18.98;100.00;100836.16;5214735;28;20151;-50
2023/07/20 05:02:50;;;;;;;4.28;1.73;;;18.60;99.90;;;18.95;100.00;100838.78;5221830;28;20045;-50
2023/07/20 05:05:22;;;;;;;2.70;1.63;;;18.60;99.90;;;18.95;100.00;100832.59;5217492;28;20406;-51
2023/07/20 05:07:56;;;;;;;3.10;1.60;;;18.60;99.90;;;18.97;100.00;100838.75;5226556;28;20108;-50
2023/07/20 05:10:29;;;;;;;3.53;2.05;;;18.60;99.90;;;18.99;100.00;100837.03;5226697;28;20128;-52
2023/07/20 05:13:01;;;;;;;5.72;2.47;;;18.60;99.90;;;19.02;100.00;100830.84;5234371;28;20563;-50
2023/07/20 05:15:37;;;;;;;4.97;2.42;;;18.60;99.90;;;19.03;100.00;100832.59;5225146;28;20201;-51
2023/07/20 05:18:10;;;;;;;4.35;2.35;;;18.70;99.90;;;19.03;100.00;100832.59;5210485;28;20053;-51
2023/07/20 05:20:43;;;;;;;7.93;2.97;;;18.70;99.90;;;19.01;100.00;100829.09;5218680;28;20048;-50
2023/07/20 05:23:20;;;;;;;6.60;2.58;;;18.70;99.90;;;19.06;100.00;100830.88;5230624;28;20045;-51
2023/07/20 05:25:56;;;;;;;5.45;2.50;;;18.70;99.90;;;19.11;100.00;100829.13;5204694;28;20414;-50
2023/07/20 05:28:28;;;;;;;6.32;2.58;;;18.70;99.90;;;19.23;100.00;100834.41;5217806;28;20061;-51
2023/07/20 05:31:03;;;;;;;5.40;2.65;;;18.80;99.90;;;19.44;100.00;100832.63;5226302;28;20511;-51
2023/07/20 05:33:39;;;;;;;4.78;2.50;;;18.90;99.90;;;19.69;100.00;100833.47;5225078;28;20139;-51
2023/07/20 05:36:30;;;;;;;6.20;2.35;;;19.20;99.90;;;19.88;100.00;100836.97;5205307;28;20041;-51
2023/07/20 05:39:05;;;;;;;4.78;2.30;;;19.40;99.90;;;19.91;100.00;100831.69;5213361;28;20133;-52
2023/07/20 05:41:40;;;;;;;4.28;2.90;;;19.40;99.90;;;19.82;100.00;100837.00;5206654;28;20156;-51
2023/07/20 05:44:12;;;;;;;7.18;3.30;;;19.40;99.90;;;19.71;100.00;100829.97;5225827;28;20045;-51
2023/07/20 05:46:45;;;;;;;9.05;3.00;;;19.30;99.90;;;19.66;100.00;100831.75;5233639;28;20047;-51
2023/07/20 05:49:17;;;;;;;6.90;3.08;;;19.30;99.90;;;19.77;100.00;100840.53;5205128;28;20056;-51
2023/07/20 05:51:49;;;;;;;8.27;3.20;;;19.30;99.90;;;19.93;100.00;100841.38;5221001;28;20044;-51
2023/07/20 05:54:25;;;;;;;5.70;2.40;;;19.40;99.90;;;20.10;100.00;100845.75;5209107;28;20128;-51
2023/07/20 05:56:57;;;;;;;7.18;2.45;;;19.60;99.90;;;20.24;100.00;100844.81;5226974;28;20145;-51
2023/07/20 05:59:33;;;;;;;5.22;2.55;;;19.70;99.90;;;20.16;100.00;100843.09;5213229;28;20068;-52
2023/07/20 06:02:06;;;;;;;9.55;3.13;;;19.70;99.90;;;20.02;100.00;100851.06;5212753;28;20418;-50
2023/07/20 06:04:40;;;;;;;5.90;2.67;;;19.60;99.90;;;19.92;100.00;100844.03;5213410;28;20102;-50
2023/07/20 06:07:13;;;;;;;3.95;1.98;;;19.50;99.90;;;19.88;100.00;100845.78;5221030;28;20107;-50
2023/07/20 06:09:47;;;;;;;6.93;2.95;;;19.50;99.90;;;19.91;100.00;100847.56;5213550;28;20076;-50
2023/07/20 06:12:19;;;;;;;5.95;2.80;;;19.50;99.90;;;19.89;100.00;100854.63;5228907;28;20045;-51
2023/07/20 06:14:51;;;;;;;7.85;3.17;;;19.50;99.90;;;19.82;100.00;100847.56;5221124;28;20049;-50
2023/07/20 06:17:24;;;;;;;5.28;2.65;;;19.40;99.90;;;19.76;100.00;100849.38;5208642;28;20056;-51
2023/07/20 06:19:56;;;;;;;7.30;2.67;;;19.40;99.90;;;19.71;100.00;100852.91;5234000;28;20045;-51
2023/07/20 06:22:28;;;;;;;5.60;2.33;;;19.30;99.90;;;19.72;100.00;100852.00;5215732;28;20048;-50
2023/07/20 06:25:03;;;;;;;4.43;2.38;;;19.30;99.90;;;19.81;100.00;100851.97;5226623;28;20041;-51
2023/07/20 06:27:35;;;;;;;3.88;2.20;;;19.40;99.90;;;19.91;100.00;100858.16;5221033;28;20423;-50
2023/07/20 06:30:09;;;;;;;4.40;2.35;;;19.50;99.90;;;20.02;100.00;100857.25;5210376;28;20045;-51
2023/07/20 06:32:41;;;;;;;7.20;2.83;;;19.60;99.90;;;20.19;100.00;100859.81;5223841;28;20119;-50
2023/07/20 06:35:13;;;;;;;7.05;2.97;;;19.70;99.90;;;20.30;100.00;100863.31;5212643;28;20506;-52
2023/07/20 06:37:46;;;;;;;5.90;3.00;;;19.80;99.90;;;20.39;100.00;100861.50;5213560;28;20078;-50
2023/07/20 06:40:20;;;;;;;5.10;3.03;;;19.80;99.90;;;20.55;100.00;100863.25;5232887;28;20045;-51
2023/07/20 06:42:52;;;;;;;7.22;2.85;;;20.00;99.90;;;20.67;100.00;100863.19;5224826;28;20045;-51
2023/07/20 06:45:25;;;;;;;5.82;2.60;;;20.10;99.90;;;20.68;100.00;100859.63;5213020;28;20045;-50
2023/07/20 06:47:57;;;;;;;6.22;2.63;;;20.10;99.90;;;20.73;99.96;100863.13;5211735;28;20057;-49
2023/07/20 06:50:29;;;;;;;5.97;2.70;;;20.20;99.90;;;20.92;97.40;100868.31;5225355;28;20515;-51
2023/07/20 06:53:03;;;;;;;4.40;2.22;;;20.40;99.90;;;21.01;96.80;100863.84;5234249;28;20045;-51
2023/07/20 06:55:42;;;;;;;3.90;2.40;;;20.40;99.90;;;21.05;96.57;100869.97;5214811;28;20042;-52
2023/07/20 06:58:15;;;;;;;5.75;3.05;;;20.50;99.90;;;21.08;96.82;100873.50;5235768;28;20479;-51
2023/07/20 07:00:48;;;;;;;5.03;2.72;;;20.60;99.90;;;21.13;96.68;100871.72;5220573;28;20049;-51
2023/07/20 07:03:21;;;;;;;6.28;2.30;;;20.70;99.90;;;21.22;96.12;100878.72;5204241;28;20075;-52
2023/07/20 07:05:57;;;;;;;6.75;3.00;;;20.70;99.90;;;21.30;94.80;100881.31;5212327;28;20053;-52
2023/07/20 07:08:29;;;;;;;3.97;2.55;;;20.80;99.90;;;21.26;94.70;100880.47;5208367;28;20076;-51
2023/07/20 07:11:03;;;;;;;4.50;2.72;;;20.80;99.90;;;21.25;94.48;100878.66;5233581;28;20049;-50
2023/07/20 07:13:35;;;;;;;7.45;3.22;;;20.80;99.90;;;21.29;94.38;100880.44;5222027;28;20446;-51
2023/07/20 07:16:08;;;;;;;4.68;2.63;;;20.90;99.90;;;21.40;94.00;100883.91;5210581;28;20049;-52
2023/07/20 07:18:40;;;;;;;5.30;2.85;;;21.00;99.90;;;21.53;93.26;100894.41;5216809;28;20057;-51
2023/07/20 07:21:13;;;;;;;5.72;3.15;;;21.10;99.90;;;21.61;91.92;100893.44;5216441;28;20055;-52
2023/07/20 07:23:49;;;;;;;7.45;3.40;;;21.10;99.90;;;21.70;91.06;100897.78;5231794;28;20056;-52
2023/07/20 07:26:23;;;;;;;6.65;3.47;;;21.20;99.90;;;21.77;90.05;100896.81;5216447;28;20046;-49
2023/07/20 07:28:55;;;;;;;5.90;3.22;;;21.20;99.90;;;21.77;89.48;100886.19;5232444;28;20437;-49
2023/07/20 07:31:27;;;;;;;5.63;3.35;;;21.30;99.90;;;21.79;89.30;100895.06;5204715;28;20047;-49
2023/07/20 07:34:04;;;;;;;6.20;3.53;;;21.30;99.90;;;21.76;89.29;100892.41;5220414;28;20053;-49
2023/07/20 07:36:36;;;;;;;5.63;3.15;;;21.20;99.90;;;21.78;88.76;100893.31;5215147;28;20041;-48
2023/07/20 07:39:09;;;;;;;4.53;3.42;;;21.20;99.90;;;21.77;87.99;100886.19;5226363;28;20140;-49
2023/07/20 07:41:46;;;;;;;5.72;3.30;;;21.20;99.90;;;22.00;87.85;100895.72;5212632;28;20406;-50
2023/07/20 07:44:21;;;;;;;5.88;3.28;;;21.30;99.90;;;22.43;87.20;100891.72;5210073;28;20052;-49
2023/07/20 07:46:53;;;;;;;4.28;2.88;;;21.60;99.90;;;22.90;85.13;100903.53;5208114;28;20130;-49
2023/07/20 07:49:25;;;;;;;4.15;3.03;;;22.00;99.60;;;23.22;83.39;100899.53;5225253;28;20515;-49
2023/07/20 07:51:58;;;;;;;7.28;3.33;;;22.30;98.90;;;23.52;82.41;100899.00;5221984;28;20049;-49
2023/07/20 07:54:30;;;;;;;4.88;2.72;;;22.60;98.50;;;23.62;81.09;100904.22;5218776;28;20056;-50
2023/07/20 07:57:05;;;;;;;3.70;2.90;;;22.80;97.90;;;23.45;80.57;100905.31;5219840;28;20056;-49
2023/07/20 07:59:40;;;;;;;3.97;2.72;;;22.70;97.40;;;23.21;80.77;100901.31;5214505;28;20048;-49
2023/07/20 08:02:12;;;;;;;4.07;2.60;;;22.60;97.60;;;22.96;82.00;100907.88;5229450;28;20507;-49
2023/07/20 08:04:45;;;;;;;2.40;2.20;;;22.40;97.40;;;22.84;82.65;100908.91;5217751;28;20045;-49
2023/07/20 08:07:17;;;;;;;5.35;2.85;;;22.30;97.60;;;22.70;82.57;100898.47;5233727;28;20042;-50
2023/07/20 08:09:50;;;;;;;3.78;2.40;;;22.20;97.60;;;22.56;83.13;100891.53;5223375;28;20043;-50
2023/07/20 08:12:23;;;;;;;5.68;2.90;;;22.10;97.70;;;22.69;82.68;100898.44;5217867;28;20418;-50
2023/07/20 08:14:56;;;;;;;7.40;2.50;;;22.10;97.80;;;23.39;80.68;100892.13;5215695;28;20131;-50
2023/07/20 08:17:28;;;;;;;4.78;2.38;;;22.40;97.70;;;24.36;77.53;100888.63;5234457;28;20797;-50
2023/07/20 08:20:06;;;;;;;4.13;2.25;;;22.90;97.00;;;25.26;73.41;100902.66;5214858;28;20045;-51
2023/07/20 08:22:38;;;;;;;3.97;2.40;;;23.60;95.70;;;26.00;70.31;100903.47;5223186;28;20536;-50
2023/07/20 08:25:11;;;;;;;5.53;2.53;;;24.20;94.80;;;25.92;69.12;100907.22;5214408;28;20049;-50
2023/07/20 08:27:48;;;;;;;3.97;2.20;;;24.40;93.50;;;25.56;70.51;100919.72;5219090;28;20065;-48
2023/07/20 08:30:24;;;;;;;3.17;2.10;;;24.30;93.40;;;25.54;70.96;100913.50;5215259;28;20536;-48
2023/07/20 08:32:56;;;;;;;3.95;2.28;;;24.30;93.30;;;26.42;68.06;100917.47;5223303;28;20513;-49
2023/07/20 08:35:28;;;;;;;3.05;1.90;;;24.70;92.80;;;27.71;65.55;100906.28;5215191;28;20060;-49
2023/07/20 08:38:01;;;;;;;3.25;2.00;;;25.30;92.50;;;28.96;61.69;100903.53;5220366;28;20517;-50
2023/07/20 08:40:34;;;;;;;3.83;2.05;;;26.00;91.40;;;29.36;59.75;100914.41;5211655;28;20483;-50
2023/07/20 08:43:08;;;;;;;2.75;1.90;;;26.50;90.00;;;28.58;59.77;100916.59;5236334;28;20069;-49
2023/07/20 08:45:41;;;;;;;;;;;26.40;87.20;;;27.51;61.41;100913.16;5216984;28;20045;-48
2023/07/20 08:48:13;;;;;;;2.65;1.67;;;25.90;86.50;;;27.50;62.83;100916.78;5215049;28;19925;-49
2023/07/20 08:50:48;;;;;;;4.78;1.83;;;25.80;88.30;;;28.91;60.14;100918.00;5223408;28;20099;-50
2023/07/20 08:53:21;;;;;;;3.92;1.60;;;26.30;87.70;;;29.37;57.95;100915.28;5222909;28;20049;-49
2023/07/20 08:55:54;;;;;;;2.50;1.20;;;26.80;84.70;;;30.33;55.82;100916.53;5220507;28;20056;-49
2023/07/20 08:58:28;;;;;;;2.70;1.50;;;27.40;83.20;;;30.94;53.39;100915.50;5217135;28;20055;-49
2023/07/20 09:01:02;;;;;;;1.95;1.42;;;28.00;79.50;;;31.61;51.90;100918.47;5222662;28;20428;-49
2023/07/20 09:03:34;;;;;;;2.63;1.40;;;28.50;77.60;;;32.34;49.84;100913.81;5210133;28;20052;-49
2023/07/20 09:06:07;;;;;;;3.08;1.30;;;28.90;75.00;;;32.99;48.40;100921.94;5235181;28;20060;-50
2023/07/20 09:08:39;;;;;;;2.10;1.52;;;29.50;72.80;;;33.09;48.30;100912.34;5232246;28;20057;-50
2023/07/20 09:11:14;;;;;;;2.53;1.50;;;29.70;71.80;;;33.73;46.76;100914.00;5211840;28;20407;-53
2023/07/20 09:14:04;;;;;;;3.22;1.65;;;30.20;70.10;;;34.19;45.71;100910.38;5207213;28;20064;-53
2023/07/20 09:16:49;;;;;;;1.77;1.20;;;30.60;68.10;;;34.08;44.59;100912.88;5215412;28;20549;-51
2023/07/20 09:19:22;;;;;;;3.05;1.30;;;30.60;65.60;;;33.58;45.08;100912.25;5228696;28;20094;-50
2023/07/20 09:21:57;;;;;;;1.98;1.50;;;30.40;65.00;;;32.47;46.85;100903.19;5213652;28;20384;-50
2023/07/20 09:24:30;;;;;;;2.90;1.38;;;29.90;65.40;;;31.08;49.11;100908.50;5213746;28;20051;-49
2023/07/20 09:27:04;;;;;;;2.63;1.45;;;29.20;66.30;;;30.01;51.77;100907.19;5214109;28;20083;-51
2023/07/20 09:29:50;;;;;;;2.13;1.20;;;28.40;67.90;;;29.09;54.07;100910.16;5213776;28;20556;-49
2023/07/20 09:32:23;;;;;;;2.65;1.40;;;27.70;69.80;;;29.17;54.46;100898.16;5211077;28;20048;-51
2023/07/20 09:34:56;;;;;;;1.70;1.30;;;27.50;71.00;;;29.57;52.77;100906.41;5218363;28;20511;-48
2023/07/20 09:37:28;;;;;;;2.35;1.50;;;27.70;70.00;;;29.79;52.43;100907.22;5236663;28;20044;-49
2023/07/20 09:40:02;;;;;;;2.22;1.30;;;28.00;69.60;;;29.83;52.38;100902.63;5213690;28;20502;-50
2023/07/20 09:42:34;;;;;;;1.50;1.23;;;28.20;68.90;;;29.44;52.34;100895.28;5213078;28;20071;-51
2023/07/20 09:45:11;;;;;;;1.83;1.20;;;28.00;68.30;;;29.00;53.29;100900.66;5221715;28;20041;-49
2023/07/20 09:47:43;;;;;;;1.83;1.30;;;27.80;68.80;;;28.36;54.55;100892.38;5217026;28;20041;-49
2023/07/20 09:50:18;;;;;;;1.40;1.30;;;27.40;69.30;;;27.66;55.60;100901.09;5210319;28;20046;-50
2023/07/20 09:52:51;;;;;;;2.92;1.95;;;26.90;69.70;;;27.07;57.01;100900.38;5223703;28;20406;-49
2023/07/20 09:55:24;;;;;;;1.73;1.63;;;26.40;70.50;;;26.64;57.84;100891.84;5213159;28;20095;-49
2023/07/20 09:57:57;;;;;;;2.45;1.40;;;25.90;71.20;;;26.68;59.86;100881.94;5221485;28;20048;-49
2023/07/20 10:00:31;;;;;;;2.45;1.80;;;25.80;73.20;;;26.96;59.73;100888.19;5212746;28;20406;-50
2023/07/20 10:03:05;;;;;;;1.50;1.40;;;25.90;73.90;;;27.21;59.59;100890.97;5211738;28;20053;-49
2023/07/20 10:05:45;;;;;;;2.70;1.50;;;26.10;74.00;;;27.37;58.88;100882.44;5234045;28;20042;-50
2023/07/20 10:08:20;;;;;;;1.67;1.38;;;26.30;73.70;;;27.49;59.12;100882.03;5228449;28;20053;-49
2023/07/20 10:10:52;;;;;;;3.17;1.67;;;26.40;73.50;;;27.58;57.93;100881.72;5212425;28;20051;-50
2023/07/20 10:13:28;;;;;;;2.90;1.45;;;26.60;72.70;;;27.73;57.79;100885.72;5211749;28;20056;-51
2023/07/20 10:16:12;;;;;;;1.83;1.42;;;26.70;72.60;;;27.85;56.54;100872.78;5205377;28;20514;-49
2023/07/20 10:18:52;;;;;;;3.28;1.40;;;26.80;71.40;;;27.74;55.75;100879.44;5227181;28;20057;-50
2023/07/20 10:21:25;;;;;;;2.55;1.67;;;26.70;70.30;;;27.54;56.11;100877.41;5217930;28;20402;-50
2023/07/20 10:24:02;;;;;;;1.48;1.20;;;26.60;70.30;;;27.40;56.53;100872.53;5209544;28;20068;-49
2023/07/20 10:26:34;;;;;;;2.15;1.50;;;26.50;70.80;;;27.31;57.11;100872.81;5229318;28;20049;-51
2023/07/20 10:29:07;;;;;;;2.00;1.27;;;26.40;71.30;;;26.98;57.06;100870.28;5217001;28;20531;-51
2023/07/20 10:31:42;;;;;;;1.75;1.30;;;26.20;70.90;;;26.76;57.85;100866.53;5220623;28;20041;-50
2023/07/20 10:34:14;;;;;;;;;;;26.00;71.50;;;26.73;58.63;100875.53;5211965;28;20057;-49
2023/07/20 10:36:51;;;;;;;2.05;1.58;;;25.90;72.10;;;26.86;59.20;100864.44;5208763;28;20374;-49
2023/07/20 10:39:27;;;;;;;4.10;2.83;;;26.00;72.80;;;26.73;59.29;100855.91;5227091;28;20059;-49